sensor_id;sensor_type;location;lat;lon;timestamp;temperature;humidity
12957;DHT22;6543;48.836;10.092;2023-07-13T00:00:10;18.20;99.90
12957;DHT22;6543;48.836;10.092;2023-07-13T00:02:37;18.20;99.90
12957;DHT22;6543;48.836;10.092;2023-07-13T00:05:05;18.10;99.90
12957;DHT22;6543;48.836;10.092;2023-07-13T00:07:33;18.10;99.90
12957;DHT22;6543;48.836;10.092;2023-07-13T00:10:00;18.20;99.90
12957;DHT22;6543;48.836;10.092;2023-07-13T00:12:29;18.10;99.90
12957;DHT22;6543;48.836;10.092;2023-07-13T00:14:58;18.20;99.90
12957;DHT22;6543;48.836;10.092;2023-07-13T00:17:26;18.10;99.90
12957;DHT22;6543;48.836;10.092;2023-07-13T00:19:53;18.10;99.90
12957;DHT22;6543;48.836;10.092;2023-07-13T00:22:21;18.20;99.90
12957;DHT22;6543;48.836;10.092;2023-07-13T00:24:52;18.20;99.90
12957;DHT22;6543;48.836;10.092;2023-07-13T00:27:21;18.00;99.90
12957;DHT22;6543;48.836;10.092;2023-07-13T00:29:48;17.90;99.90
12957;DHT22;6543;48.836;10.092;2023-07-13T00:32:15;17.80;99.90
12957;DHT22;6543;48.836;10.092;2023-07-13T00:34:42;17.80;99.90
12957;DHT22;6543;48.836;10.092;2023-07-13T00:37:09;17.80;99.90
12957;DHT22;6543;48.836;10.092;2023-07-13T00:39:36;18.00;99.90
12957;DHT22;6543;48.836;10.092;2023-07-13T00:42:06;18.00;99.90
12957;DHT22;6543;48.836;10.092;2023-07-13T00:44:33;18.20;99.90
12957;DHT22;6543;48.836;10.092;2023-07-13T00:47:00;18.20;99.90
12957;DHT22;6543;48.836;10.092;2023-07-13T00:49:29;18.40;99.90
12957;DHT22;6543;48.836;10.092;2023-07-13T00:51:58;18.70;99.90
12957;DHT22;6543;48.836;10.092;2023-07-13T00:54:29;18.60;99.90
12957;DHT22;6543;48.836;10.092;2023-07-13T00:57:00;18.60;99.90
12957;DHT22;6543;48.836;10.092;2023-07-13T00:59:29;18.70;99.90
12957;DHT22;6543;48.836;10.092;2023-07-13T01:01:57;18.60;99.90
12957;DHT22;6543;48.836;10.092;2023-07-13T01:04:24;18.70;99.90
12957;DHT22;6543;48.836;10.092;2023-07-13T01:06:52;18.70;99.90
12957;DHT22;6543;48.836;10.092;2023-07-13T01:09:19;18.70;99.90
12957;DHT22;6543;48.836;10.092;2023-07-13T01:11:46;18.70;99.90
12957;DHT22;6543;48.836;10.092;2023-07-13T01:14:14;18.80;99.90
12957;DHT22;6543;48.836;10.092;2023-07-13T01:16:45;18.80;99.90
12957;DHT22;6543;48.836;10.092;2023-07-13T01:19:25;18.80;99.90
12957;DHT22;6543;48.836;10.092;2023-07-13T01:22:03;18.70;99.90
12957;DHT22;6543;48.836;10.092;2023-07-13T01:24:34;18.70;99.90
12957;DHT22;6543;48.836;10.092;2023-07-13T01:27:02;18.80;99.90
12957;DHT22;6543;48.836;10.092;2023-07-13T01:29:30;18.70;99.90
12957;DHT22;6543;48.836;10.092;2023-07-13T01:31:56;18.80;99.90
12957;DHT22;6543;48.836;10.092;2023-07-13T01:34:23;18.80;99.90
12957;DHT22;6543;48.836;10.092;2023-07-13T01:36:50;18.80;99.90
12957;DHT22;6543;48.836;10.092;2023-07-13T01:39:20;18.80;99.90
12957;DHT22;6543;48.836;10.092;2023-07-13T01:41:47;18.80;99.90
12957;DHT22;6543;48.836;10.092;2023-07-13T01:44:14;18.70;99.90
12957;DHT22;6543;48.836;10.092;2023-07-13T01:46:41;18.70;99.90
12957;DHT22;6543;48.836;10.092;2023-07-13T01:49:08;18.60;99.90
12957;DHT22;6543;48.836;10.092;2023-07-13T01:51:35;18.60;99.90
12957;DHT22;6543;48.836;10.092;2023-07-13T01:54:01;18.50;99.90
12957;DHT22;6543;48.836;10.092;2023-07-13T01:56:30;18.50;99.90
12957;DHT22;6543;48.836;10.092;2023-07-13T01:58:56;18.40;99.90
12957;DHT22;6543;48.836;10.092;2023-07-13T02:01:23;18.40;99.90
12957;DHT22;6543;48.836;10.092;2023-07-13T02:03:50;18.40;99.90
12957;DHT22;6543;48.836;10.092;2023-07-13T02:06:17;18.40;99.90
12957;DHT22;6543;48.836;10.092;2023-07-13T02:08:44;18.40;99.90
12957;DHT22;6543;48.836;10.092;2023-07-13T02:11:11;18.40;99.90
12957;DHT22;6543;48.836;10.092;2023-07-13T02:13:39;18.30;99.90
12957;DHT22;6543;48.836;10.092;2023-07-13T02:16:06;18.20;99.90
12957;DHT22;6543;48.836;10.092;2023-07-13T02:18:33;18.20;99.90
12957;DHT22;6543;48.836;10.092;2023-07-13T02:21:00;18.10;99.90
12957;DHT22;6543;48.836;10.092;2023-07-13T02:23:28;18.00;99.90
12957;DHT22;6543;48.836;10.092;2023-07-13T02:25:55;18.00;99.90
12957;DHT22;6543;48.836;10.092;2023-07-13T02:28:22;17.90;99.90
12957;DHT22;6543;48.836;10.092;2023-07-13T02:30:51;17.80;99.90
12957;DHT22;6543;48.836;10.092;2023-07-13T02:33:17;17.80;99.90
12957;DHT22;6543;48.836;10.092;2023-07-13T02:35:44;17.70;99.90
12957;DHT22;6543;48.836;10.092;2023-07-13T02:38:11;17.70;99.90
12957;DHT22;6543;48.836;10.092;2023-07-13T02:40:38;17.60;99.90
12957;DHT22;6543;48.836;10.092;2023-07-13T02:43:05;17.60;99.90
12957;DHT22;6543;48.836;10.092;2023-07-13T02:45:31;17.50;99.90
12957;DHT22;6543;48.836;10.092;2023-07-13T02:48:00;17.40;99.90
12957;DHT22;6543;48.836;10.092;2023-07-13T02:50:26;17.30;99.90
12957;DHT22;6543;48.836;10.092;2023-07-13T02:52:53;17.20;99.90
12957;DHT22;6543;48.836;10.092;2023-07-13T02:55:20;17.10;99.90
12957;DHT22;6543;48.836;10.092;2023-07-13T02:57:47;17.10;99.90
12957;DHT22;6543;48.836;10.092;2023-07-13T03:00:15;17.10;99.90
12957;DHT22;6543;48.836;10.092;2023-07-13T03:02:43;17.00;99.90
12957;DHT22;6543;48.836;10.092;2023-07-13T03:05:11;16.90;99.90
12957;DHT22;6543;48.836;10.092;2023-07-13T03:07:38;16.90;99.90
12957;DHT22;6543;48.836;10.092;2023-07-13T03:10:06;16.80;99.90
12957;DHT22;6543;48.836;10.092;2023-07-13T03:12:33;16.70;99.90
12957;DHT22;6543;48.836;10.092;2023-07-13T03:15:00;16.70;99.90
12957;DHT22;6543;48.836;10.092;2023-07-13T03:17:26;16.60;99.90
12957;DHT22;6543;48.836;10.092;2023-07-13T03:19:53;16.60;99.90
12957;DHT22;6543;48.836;10.092;2023-07-13T03:22:21;16.60;99.90
12957;DHT22;6543;48.836;10.092;2023-07-13T03:24:48;16.60;99.90
12957;DHT22;6543;48.836;10.092;2023-07-13T03:27:17;16.50;99.90
12957;DHT22;6543;48.836;10.092;2023-07-13T03:29:44;16.50;99.90
12957;DHT22;6543;48.836;10.092;2023-07-13T03:32:11;16.50;99.90
12957;DHT22;6543;48.836;10.092;2023-07-13T03:34:38;16.50;99.90
12957;DHT22;6543;48.836;10.092;2023-07-13T03:37:05;16.50;99.90
12957;DHT22;6543;48.836;10.092;2023-07-13T03:39:33;16.40;99.90
12957;DHT22;6543;48.836;10.092;2023-07-13T03:42:00;16.40;99.90
12957;DHT22;6543;48.836;10.092;2023-07-13T03:44:27;16.30;99.90
12957;DHT22;6543;48.836;10.092;2023-07-13T03:46:54;16.20;99.90
12957;DHT22;6543;48.836;10.092;2023-07-13T03:49:21;16.30;99.90
12957;DHT22;6543;48.836;10.092;2023-07-13T03:51:47;16.10;99.90
12957;DHT22;6543;48.836;10.092;2023-07-13T03:54:14;16.20;99.90
12957;DHT22;6543;48.836;10.092;2023-07-13T03:56:42;16.30;99.90
12957;DHT22;6543;48.836;10.092;2023-07-13T03:59:09;16.30;99.90
12957;DHT22;6543;48.836;10.092;2023-07-13T04:01:37;16.30;99.90
12957;DHT22;6543;48.836;10.092;2023-07-13T04:04:04;16.30;99.90
12957;DHT22;6543;48.836;10.092;2023-07-13T04:06:32;16.30;99.90
12957;DHT22;6543;48.836;10.092;2023-07-13T04:09:00;16.30;99.90
12957;DHT22;6543;48.836;10.092;2023-07-13T04:11:29;16.40;99.90
12957;DHT22;6543;48.836;10.092;2023-07-13T04:13:58;16.40;99.90
12957;DHT22;6543;48.836;10.092;2023-07-13T04:16:25;16.50;99.90
12957;DHT22;6543;48.836;10.092;2023-07-13T04:18:52;16.50;99.90
12957;DHT22;6543;48.836;10.092;2023-07-13T04:21:24;16.50;99.90
12957;DHT22;6543;48.836;10.092;2023-07-13T04:23:52;16.60;99.90
12957;DHT22;6543;48.836;10.092;2023-07-13T04:26:19;16.70;99.90
12957;DHT22;6543;48.836;10.092;2023-07-13T04:28:48;16.90;99.90
12957;DHT22;6543;48.836;10.092;2023-07-13T04:31:17;16.90;99.90
12957;DHT22;6543;48.836;10.092;2023-07-13T04:33:44;17.00;99.90
12957;DHT22;6543;48.836;10.092;2023-07-13T04:36:11;17.10;99.90
12957;DHT22;6543;48.836;10.092;2023-07-13T04:38:38;17.20;99.90
12957;DHT22;6543;48.836;10.092;2023-07-13T04:41:06;17.30;99.90
12957;DHT22;6543;48.836;10.092;2023-07-13T04:43:34;17.40;99.90
12957;DHT22;6543;48.836;10.092;2023-07-13T04:46:04;17.50;99.90
12957;DHT22;6543;48.836;10.092;2023-07-13T04:48:33;17.50;99.90
12957;DHT22;6543;48.836;10.092;2023-07-13T04:51:00;17.40;99.90
12957;DHT22;6543;48.836;10.092;2023-07-13T04:53:28;17.40;99.90
12957;DHT22;6543;48.836;10.092;2023-07-13T04:55:56;17.30;99.90
12957;DHT22;6543;48.836;10.092;2023-07-13T04:58:24;17.30;99.90
12957;DHT22;6543;48.836;10.092;2023-07-13T05:00:51;17.20;99.90
12957;DHT22;6543;48.836;10.092;2023-07-13T05:03:18;17.20;99.90
12957;DHT22;6543;48.836;10.092;2023-07-13T05:05:55;17.30;99.90
12957;DHT22;6543;48.836;10.092;2023-07-13T05:08:24;17.40;99.90
12957;DHT22;6543;48.836;10.092;2023-07-13T05:10:52;17.40;99.90
12957;DHT22;6543;48.836;10.092;2023-07-13T05:13:19;17.30;99.90
12957;DHT22;6543;48.836;10.092;2023-07-13T05:15:47;17.30;99.90
12957;DHT22;6543;48.836;10.092;2023-07-13T05:18:14;17.30;99.90
12957;DHT22;6543;48.836;10.092;2023-07-13T05:20:41;17.30;99.90
12957;DHT22;6543;48.836;10.092;2023-07-13T05:23:09;17.40;99.90
12957;DHT22;6543;48.836;10.092;2023-07-13T05:25:36;17.30;99.90
12957;DHT22;6543;48.836;10.092;2023-07-13T05:28:03;17.40;99.90
12957;DHT22;6543;48.836;10.092;2023-07-13T05:30:30;17.30;99.90
12957;DHT22;6543;48.836;10.092;2023-07-13T05:32:57;17.50;99.90
12957;DHT22;6543;48.836;10.092;2023-07-13T05:35:23;17.60;99.90
12957;DHT22;6543;48.836;10.092;2023-07-13T05:37:50;17.80;99.90
12957;DHT22;6543;48.836;10.092;2023-07-13T05:40:18;17.70;99.90
12957;DHT22;6543;48.836;10.092;2023-07-13T05:45:17;17.70;99.90
12957;DHT22;6543;48.836;10.092;2023-07-13T05:47:44;17.80;99.90
12957;DHT22;6543;48.836;10.092;2023-07-13T05:50:11;17.70;99.90
12957;DHT22;6543;48.836;10.092;2023-07-13T05:52:37;18.10;99.90
12957;DHT22;6543;48.836;10.092;2023-07-13T05:55:05;18.10;99.90
12957;DHT22;6543;48.836;10.092;2023-07-13T05:57:33;18.00;99.90
12957;DHT22;6543;48.836;10.092;2023-07-13T06:00:00;17.90;99.90
12957;DHT22;6543;48.836;10.092;2023-07-13T06:02:27;18.00;99.90
12957;DHT22;6543;48.836;10.092;2023-07-13T06:04:54;18.00;99.90
12957;DHT22;6543;48.836;10.092;2023-07-13T06:07:21;18.10;99.90
12957;DHT22;6543;48.836;10.092;2023-07-13T06:09:48;18.80;99.90
12957;DHT22;6543;48.836;10.092;2023-07-13T06:12:15;18.70;99.90
12957;DHT22;6543;48.836;10.092;2023-07-13T06:14:43;18.60;99.90
12957;DHT22;6543;48.836;10.092;2023-07-13T06:17:10;18.90;99.90
12957;DHT22;6543;48.836;10.092;2023-07-13T06:19:37;18.80;99.90
12957;DHT22;6543;48.836;10.092;2023-07-13T06:22:04;18.60;99.90
12957;DHT22;6543;48.836;10.092;2023-07-13T06:24:31;18.60;99.90
12957;DHT22;6543;48.836;10.092;2023-07-13T06:26:58;18.60;99.90
12957;DHT22;6543;48.836;10.092;2023-07-13T06:29:25;18.80;99.90
12957;DHT22;6543;48.836;10.092;2023-07-13T06:31:54;18.90;99.90
12957;DHT22;6543;48.836;10.092;2023-07-13T06:34:21;18.90;99.90
12957;DHT22;6543;48.836;10.092;2023-07-13T06:36:47;19.20;99.90
12957;DHT22;6543;48.836;10.092;2023-07-13T06:39:14;19.50;99.90
12957;DHT22;6543;48.836;10.092;2023-07-13T06:41:41;19.70;99.90
12957;DHT22;6543;48.836;10.092;2023-07-13T06:44:08;19.30;99.90
12957;DHT22;6543;48.836;10.092;2023-07-13T06:46:35;18.90;99.90
12957;DHT22;6543;48.836;10.092;2023-07-13T06:49:03;18.90;99.90
12957;DHT22;6543;48.836;10.092;2023-07-13T06:51:30;19.30;99.90
12957;DHT22;6543;48.836;10.092;2023-07-13T06:53:57;19.40;99.90
12957;DHT22;6543;48.836;10.092;2023-07-13T06:56:24;19.10;99.90
12957;DHT22;6543;48.836;10.092;2023-07-13T06:58:50;19.10;99.90
12957;DHT22;6543;48.836;10.092;2023-07-13T07:01:17;19.60;99.90
12957;DHT22;6543;48.836;10.092;2023-07-13T07:03:44;19.70;99.90
12957;DHT22;6543;48.836;10.092;2023-07-13T07:06:16;19.70;99.90
12957;DHT22;6543;48.836;10.092;2023-07-13T07:08:43;19.30;99.90
12957;DHT22;6543;48.836;10.092;2023-07-13T07:11:12;19.40;99.90
12957;DHT22;6543;48.836;10.092;2023-07-13T07:16:06;19.40;99.90
12957;DHT22;6543;48.836;10.092;2023-07-13T07:18:34;19.80;99.90
12957;DHT22;6543;48.836;10.092;2023-07-13T07:21:01;19.80;99.90
12957;DHT22;6543;48.836;10.092;2023-07-13T07:23:29;19.60;99.90
12957;DHT22;6543;48.836;10.092;2023-07-13T07:25:56;19.80;99.90
12957;DHT22;6543;48.836;10.092;2023-07-13T07:28:23;19.80;99.90
12957;DHT22;6543;48.836;10.092;2023-07-13T07:30:53;19.80;99.90
12957;DHT22;6543;48.836;10.092;2023-07-13T07:33:21;19.40;99.90
12957;DHT22;6543;48.836;10.092;2023-07-13T07:38:53;19.20;99.90
12957;DHT22;6543;48.836;10.092;2023-07-13T07:41:20;19.30;99.90
12957;DHT22;6543;48.836;10.092;2023-07-13T07:43:47;19.10;99.90
12957;DHT22;6543;48.836;10.092;2023-07-13T07:46:14;19.10;99.90
12957;DHT22;6543;48.836;10.092;2023-07-13T07:48:43;19.10;99.90
12957;DHT22;6543;48.836;10.092;2023-07-13T07:51:10;19.10;99.90
12957;DHT22;6543;48.836;10.092;2023-07-13T07:53:37;19.40;99.90
12957;DHT22;6543;48.836;10.092;2023-07-13T07:56:10;19.70;99.90
12957;DHT22;6543;48.836;10.092;2023-07-13T07:58:37;19.40;99.90
12957;DHT22;6543;48.836;10.092;2023-07-13T08:01:05;19.20;99.90
12957;DHT22;6543;48.836;10.092;2023-07-13T08:03:33;19.40;99.90
12957;DHT22;6543;48.836;10.092;2023-07-13T08:06:00;19.30;99.90
12957;DHT22;6543;48.836;10.092;2023-07-13T08:08:27;19.50;99.90
12957;DHT22;6543;48.836;10.092;2023-07-13T08:10:54;19.60;99.90
12957;DHT22;6543;48.836;10.092;2023-07-13T08:13:23;19.40;99.90
12957;DHT22;6543;48.836;10.092;2023-07-13T08:15:51;19.50;99.90
12957;DHT22;6543;48.836;10.092;2023-07-13T08:18:18;19.20;99.90
12957;DHT22;6543;48.836;10.092;2023-07-13T08:20:45;19.60;99.90
12957;DHT22;6543;48.836;10.092;2023-07-13T08:23:12;19.80;99.90
12957;DHT22;6543;48.836;10.092;2023-07-13T08:25:39;20.00;99.90
12957;DHT22;6543;48.836;10.092;2023-07-13T08:28:06;19.80;99.90
12957;DHT22;6543;48.836;10.092;2023-07-13T08:30:36;20.00;99.90
12957;DHT22;6543;48.836;10.092;2023-07-13T08:33:04;20.20;99.90
12957;DHT22;6543;48.836;10.092;2023-07-13T08:35:31;20.40;99.90
12957;DHT22;6543;48.836;10.092;2023-07-13T08:37:58;20.10;99.90
12957;DHT22;6543;48.836;10.092;2023-07-13T08:40:27;20.00;99.90
12957;DHT22;6543;48.836;10.092;2023-07-13T08:42:57;20.10;99.90
12957;DHT22;6543;48.836;10.092;2023-07-13T08:45:30;20.50;99.90
12957;DHT22;6543;48.836;10.092;2023-07-13T08:48:03;20.50;99.90
12957;DHT22;6543;48.836;10.092;2023-07-13T08:50:34;20.80;99.90
12957;DHT22;6543;48.836;10.092;2023-07-13T08:53:02;21.10;99.90
12957;DHT22;6543;48.836;10.092;2023-07-13T08:55:33;21.40;99.90
12957;DHT22;6543;48.836;10.092;2023-07-13T08:58:09;21.50;99.90
12957;DHT22;6543;48.836;10.092;2023-07-13T09:00:44;21.60;99.90
12957;DHT22;6543;48.836;10.092;2023-07-13T09:03:20;21.10;99.90
12957;DHT22;6543;48.836;10.092;2023-07-13T09:05:50;21.50;99.90
12957;DHT22;6543;48.836;10.092;2023-07-13T09:08:35;21.40;99.90
12957;DHT22;6543;48.836;10.092;2023-07-13T09:11:20;21.60;99.90
12957;DHT22;6543;48.836;10.092;2023-07-13T09:14:00;22.40;99.90
12957;DHT22;6543;48.836;10.092;2023-07-13T09:16:30;22.90;99.90
12957;DHT22;6543;48.836;10.092;2023-07-13T09:19:04;23.00;99.90
12957;DHT22;6543;48.836;10.092;2023-07-13T09:21:33;22.90;99.90
12957;DHT22;6543;48.836;10.092;2023-07-13T09:24:26;23.60;99.90
12957;DHT22;6543;48.836;10.092;2023-07-13T09:26:55;23.50;99.90
12957;DHT22;6543;48.836;10.092;2023-07-13T09:29:31;23.70;99.90
12957;DHT22;6543;48.836;10.092;2023-07-13T09:32:02;23.40;99.90
12957;DHT22;6543;48.836;10.092;2023-07-13T09:34:36;23.10;99.90
12957;DHT22;6543;48.836;10.092;2023-07-13T09:37:04;22.80;99.90
12957;DHT22;6543;48.836;10.092;2023-07-13T09:39:34;22.50;99.90
12957;DHT22;6543;48.836;10.092;2023-07-13T09:42:07;22.10;99.90
12957;DHT22;6543;48.836;10.092;2023-07-13T09:44:52;22.40;99.90
12957;DHT22;6543;48.836;10.092;2023-07-13T09:47:20;22.80;99.80
12957;DHT22;6543;48.836;10.092;2023-07-13T09:49:55;22.50;99.80
12957;DHT22;6543;48.836;10.092;2023-07-13T09:52:24;22.00;99.90
12957;DHT22;6543;48.836;10.092;2023-07-13T09:54:53;22.30;99.90
12957;DHT22;6543;48.836;10.092;2023-07-13T09:57:26;22.50;99.90
12957;DHT22;6543;48.836;10.092;2023-07-13T09:59:54;22.60;99.30
12957;DHT22;6543;48.836;10.092;2023-07-13T10:02:26;22.70;99.10
12957;DHT22;6543;48.836;10.092;2023-07-13T10:05:01;22.40;99.10
12957;DHT22;6543;48.836;10.092;2023-07-13T10:07:29;22.50;99.10
12957;DHT22;6543;48.836;10.092;2023-07-13T10:09:58;22.60;99.30
12957;DHT22;6543;48.836;10.092;2023-07-13T10:12:29;22.50;99.80
12957;DHT22;6543;48.836;10.092;2023-07-13T10:15:00;22.70;99.90
12957;DHT22;6543;48.836;10.092;2023-07-13T10:17:31;23.00;99.60
12957;DHT22;6543;48.836;10.092;2023-07-13T10:20:02;23.20;99.20
12957;DHT22;6543;48.836;10.092;2023-07-13T10:22:39;22.90;99.10
12957;DHT22;6543;48.836;10.092;2023-07-13T10:25:17;23.50;98.90
12957;DHT22;6543;48.836;10.092;2023-07-13T10:27:45;23.30;98.30
12957;DHT22;6543;48.836;10.092;2023-07-13T10:30:16;24.00;98.20
12957;DHT22;6543;48.836;10.092;2023-07-13T10:32:48;23.90;98.10
12957;DHT22;6543;48.836;10.092;2023-07-13T10:35:21;23.40;97.80
12957;DHT22;6543;48.836;10.092;2023-07-13T10:37:52;23.20;98.20
12957;DHT22;6543;48.836;10.092;2023-07-13T10:40:27;22.40;95.80
12957;DHT22;6543;48.836;10.092;2023-07-13T10:42:58;22.80;96.20
12957;DHT22;6543;48.836;10.092;2023-07-13T10:45:34;23.30;95.30
12957;DHT22;6543;48.836;10.092;2023-07-13T10:48:02;23.20;95.90
12957;DHT22;6543;48.836;10.092;2023-07-13T10:50:32;23.30;95.70
12957;DHT22;6543;48.836;10.092;2023-07-13T10:53:03;23.60;95.60
12957;DHT22;6543;48.836;10.092;2023-07-13T10:55:34;23.90;95.50
12957;DHT22;6543;48.836;10.092;2023-07-13T10:58:11;24.00;95.20
12957;DHT22;6543;48.836;10.092;2023-07-13T11:01:07;23.60;94.00
12957;DHT22;6543;48.836;10.092;2023-07-13T11:03:38;23.40;93.90
12957;DHT22;6543;48.836;10.092;2023-07-13T11:06:14;23.90;94.40
12957;DHT22;6543;48.836;10.092;2023-07-13T11:08:53;24.60;94.10
12957;DHT22;6543;48.836;10.092;2023-07-13T11:11:37;24.90;93.40
12957;DHT22;6543;48.836;10.092;2023-07-13T11:14:25;24.50;93.70
12957;DHT22;6543;48.836;10.092;2023-07-13T11:16:52;24.80;93.50
12957;DHT22;6543;48.836;10.092;2023-07-13T11:19:40;24.80;93.10
12957;DHT22;6543;48.836;10.092;2023-07-13T11:22:15;23.90;91.80
12957;DHT22;6543;48.836;10.092;2023-07-13T11:24:50;23.30;91.90
12957;DHT22;6543;48.836;10.092;2023-07-13T11:27:26;23.50;92.50
12957;DHT22;6543;48.836;10.092;2023-07-13T11:32:51;24.10;92.80
12957;DHT22;6543;48.836;10.092;2023-07-13T11:35:22;24.20;92.10
12957;DHT22;6543;48.836;10.092;2023-07-13T11:37:52;24.00;92.40
12957;DHT22;6543;48.836;10.092;2023-07-13T11:40:19;24.20;91.80
12957;DHT22;6543;48.836;10.092;2023-07-13T11:42:49;24.50;91.90
12957;DHT22;6543;48.836;10.092;2023-07-13T11:45:20;24.40;91.90
12957;DHT22;6543;48.836;10.092;2023-07-13T11:47:48;24.10;91.80
12957;DHT22;6543;48.836;10.092;2023-07-13T11:50:20;23.70;91.90
12957;DHT22;6543;48.836;10.092;2023-07-13T11:52:48;23.90;90.30
12957;DHT22;6543;48.836;10.092;2023-07-13T11:55:21;24.10;88.30
12957;DHT22;6543;48.836;10.092;2023-07-13T11:57:51;24.40;90.00
12957;DHT22;6543;48.836;10.092;2023-07-13T12:00:23;24.80;89.60
12957;DHT22;6543;48.836;10.092;2023-07-13T12:02:54;24.20;89.40
12957;DHT22;6543;48.836;10.092;2023-07-13T12:05:22;24.60;90.00
12957;DHT22;6543;48.836;10.092;2023-07-13T12:07:50;25.00;89.40
12957;DHT22;6543;48.836;10.092;2023-07-13T12:10:23;25.00;88.10
12957;DHT22;6543;48.836;10.092;2023-07-13T12:12:53;24.80;87.90
12957;DHT22;6543;48.836;10.092;2023-07-13T12:15:20;24.90;88.70
12957;DHT22;6543;48.836;10.092;2023-07-13T12:17:49;25.00;89.70
12957;DHT22;6543;48.836;10.092;2023-07-13T12:20:21;25.10;89.80
12957;DHT22;6543;48.836;10.092;2023-07-13T12:22:49;25.10;88.20
12957;DHT22;6543;48.836;10.092;2023-07-13T12:25:17;25.00;89.90
12957;DHT22;6543;48.836;10.092;2023-07-13T12:27:48;24.80;90.10
12957;DHT22;6543;48.836;10.092;2023-07-13T12:30:25;24.60;90.00
12957;DHT22;6543;48.836;10.092;2023-07-13T12:32:57;24.80;90.40
12957;DHT22;6543;48.836;10.092;2023-07-13T12:35:25;24.90;90.50
12957;DHT22;6543;48.836;10.092;2023-07-13T12:37:56;25.00;90.80
12957;DHT22;6543;48.836;10.092;2023-07-13T12:40:33;24.40;90.50
12957;DHT22;6543;48.836;10.092;2023-07-13T12:43:04;24.80;90.80
12957;DHT22;6543;48.836;10.092;2023-07-13T12:45:33;24.40;90.90
12957;DHT22;6543;48.836;10.092;2023-07-13T12:48:05;23.80;90.60
12957;DHT22;6543;48.836;10.092;2023-07-13T12:50:38;23.80;90.80
12957;DHT22;6543;48.836;10.092;2023-07-13T12:53:12;23.70;90.70
12957;DHT22;6543;48.836;10.092;2023-07-13T12:55:44;24.10;90.20
12957;DHT22;6543;48.836;10.092;2023-07-13T12:58:26;24.50;90.20
12957;DHT22;6543;48.836;10.092;2023-07-13T13:00:54;24.60;90.60
12957;DHT22;6543;48.836;10.092;2023-07-13T13:03:26;25.00;91.00
12957;DHT22;6543;48.836;10.092;2023-07-13T13:05:58;25.00;91.10
12957;DHT22;6543;48.836;10.092;2023-07-13T13:08:25;25.00;90.40
12957;DHT22;6543;48.836;10.092;2023-07-13T13:10:52;25.30;89.20
12957;DHT22;6543;48.836;10.092;2023-07-13T13:13:21;24.60;89.20
12957;DHT22;6543;48.836;10.092;2023-07-13T13:15:48;24.70;90.40
12957;DHT22;6543;48.836;10.092;2023-07-13T13:18:16;24.90;90.40
12957;DHT22;6543;48.836;10.092;2023-07-13T13:20:43;25.20;90.30
12957;DHT22;6543;48.836;10.092;2023-07-13T13:23:13;25.50;90.00
12957;DHT22;6543;48.836;10.092;2023-07-13T13:25:49;25.70;89.80
12957;DHT22;6543;48.836;10.092;2023-07-13T13:28:18;26.00;89.90
12957;DHT22;6543;48.836;10.092;2023-07-13T13:30:48;26.60;88.10
12957;DHT22;6543;48.836;10.092;2023-07-13T13:33:19;25.90;90.00
12957;DHT22;6543;48.836;10.092;2023-07-13T13:35:47;25.70;89.30
12957;DHT22;6543;48.836;10.092;2023-07-13T13:38:16;26.20;90.10
12957;DHT22;6543;48.836;10.092;2023-07-13T13:40:44;26.30;88.40
12957;DHT22;6543;48.836;10.092;2023-07-13T13:43:15;25.80;88.90
12957;DHT22;6543;48.836;10.092;2023-07-13T13:45:43;26.00;89.20
12957;DHT22;6543;48.836;10.092;2023-07-13T13:48:16;25.80;88.60
12957;DHT22;6543;48.836;10.092;2023-07-13T13:50:44;25.20;89.60
12957;DHT22;6543;48.836;10.092;2023-07-13T13:53:11;25.70;89.70
12957;DHT22;6543;48.836;10.092;2023-07-13T13:55:39;25.50;90.00
12957;DHT22;6543;48.836;10.092;2023-07-13T13:58:08;25.70;90.00
12957;DHT22;6543;48.836;10.092;2023-07-13T14:00:35;26.10;89.20
12957;DHT22;6543;48.836;10.092;2023-07-13T14:03:02;25.80;88.60
12957;DHT22;6543;48.836;10.092;2023-07-13T14:05:31;25.60;88.80
12957;DHT22;6543;48.836;10.092;2023-07-13T14:07:58;25.50;88.50
12957;DHT22;6543;48.836;10.092;2023-07-13T14:10:25;25.80;89.10
12957;DHT22;6543;48.836;10.092;2023-07-13T14:12:54;26.30;88.40
12957;DHT22;6543;48.836;10.092;2023-07-13T14:15:24;25.80;88.20
12957;DHT22;6543;48.836;10.092;2023-07-13T14:17:52;25.50;89.10
12957;DHT22;6543;48.836;10.092;2023-07-13T14:20:21;25.40;89.80
12957;DHT22;6543;48.836;10.092;2023-07-13T14:22:51;25.50;89.40
12957;DHT22;6543;48.836;10.092;2023-07-13T14:25:19;25.30;90.10
12957;DHT22;6543;48.836;10.092;2023-07-13T14:27:49;25.20;90.00
12957;DHT22;6543;48.836;10.092;2023-07-13T14:30:20;25.50;90.00
12957;DHT22;6543;48.836;10.092;2023-07-13T14:32:48;25.00;89.70
12957;DHT22;6543;48.836;10.092;2023-07-13T14:35:17;25.10;88.80
12957;DHT22;6543;48.836;10.092;2023-07-13T14:37:46;25.10;88.50
12957;DHT22;6543;48.836;10.092;2023-07-13T14:40:17;25.40;88.10
12957;DHT22;6543;48.836;10.092;2023-07-13T14:42:44;24.80;88.40
12957;DHT22;6543;48.836;10.092;2023-07-13T14:45:15;24.90;88.50
12957;DHT22;6543;48.836;10.092;2023-07-13T14:47:43;24.60;89.00
12957;DHT22;6543;48.836;10.092;2023-07-13T14:50:15;25.20;88.80
12957;DHT22;6543;48.836;10.092;2023-07-13T14:52:43;24.60;88.20
12957;DHT22;6543;48.836;10.092;2023-07-13T14:55:15;24.70;89.30
12957;DHT22;6543;48.836;10.092;2023-07-13T14:57:43;24.60;89.30
12957;DHT22;6543;48.836;10.092;2023-07-13T15:00:15;26.00;86.80
12957;DHT22;6543;48.836;10.092;2023-07-13T15:02:44;26.50;86.80
12957;DHT22;6543;48.836;10.092;2023-07-13T15:05:16;26.70;84.30
12957;DHT22;6543;48.836;10.092;2023-07-13T15:07:44;26.80;84.10
12957;DHT22;6543;48.836;10.092;2023-07-13T15:10:17;27.30;84.30
12957;DHT22;6543;48.836;10.092;2023-07-13T15:12:45;27.20;83.10
12957;DHT22;6543;48.836;10.092;2023-07-13T15:15:13;27.60;81.70
12957;DHT22;6543;48.836;10.092;2023-07-13T15:17:41;26.60;82.20
12957;DHT22;6543;48.836;10.092;2023-07-13T15:20:19;26.50;84.60
12957;DHT22;6543;48.836;10.092;2023-07-13T15:22:48;26.20;84.40
12957;DHT22;6543;48.836;10.092;2023-07-13T15:25:18;26.30;82.70
12957;DHT22;6543;48.836;10.092;2023-07-13T15:27:46;25.80;83.10
12957;DHT22;6543;48.836;10.092;2023-07-13T15:30:16;25.50;83.20
12957;DHT22;6543;48.836;10.092;2023-07-13T15:32:43;25.50;83.60
12957;DHT22;6543;48.836;10.092;2023-07-13T15:35:15;25.30;84.70
12957;DHT22;6543;48.836;10.092;2023-07-13T15:37:43;25.10;83.90
12957;DHT22;6543;48.836;10.092;2023-07-13T15:40:11;24.90;83.50
12957;DHT22;6543;48.836;10.092;2023-07-13T15:42:40;24.90;83.00
12957;DHT22;6543;48.836;10.092;2023-07-13T15:45:19;24.90;83.70
12957;DHT22;6543;48.836;10.092;2023-07-13T15:47:47;25.60;82.40
12957;DHT22;6543;48.836;10.092;2023-07-13T15:50:16;25.50;82.40
12957;DHT22;6543;48.836;10.092;2023-07-13T15:52:45;25.00;83.60